Terminal Aerodrome Forecast
Issued by NWS

Home | Current Version | Previous Version | Text Only | Print | Product List | Glossary On
Versions: 1 2 3 4 5 6 7 8 9 10 11 12 13 14 15 16 17 18 19 20 21
000
FTUS46 KMTR 252339
TAFMRY
TAF
KMRY 252339Z 2600/2624 29009KT P6SM SCT030 SCT050
     FM260300 25006KT P6SM FEW015 SCT050
     FM260900 16004KT P6SM SCT015 BKN100
     FM261500 VRB04KT P6SM SCT020 BKN050
     FM261900 19008KT P6SM SCT040 BKN150=

USA.gov is the U.S. government's official web portal to all federal, state and local government web resources and services.